Time;durP1;ratioP1;P1;durP2;ratioP2;P2;SDS_P1;SDS_P2;PMS_P1;PMS_P2;Temp;Humidity;BMP_temperature;BMP_pressure;BME280_temperature;BME280_humidity;BME280_pressure;Samples;Min_cycle;Max_cycle;Signal;HPM_P1;HPM_P2
2021/12/20 00:00:57;;;;;;;0.30;0.20;;;7.60;99.90;;;;;;4872773;29;20611;-85
2021/12/20 00:03:22;;;;;;;0.40;0.20;;;7.70;99.90;;;;;;4873163;29;20220;-85
2021/12/20 00:05:48;;;;;;;2.00;0.43;;;7.60;99.90;;;;;;4872804;29;20251;-85
2021/12/20 00:08:14;;;;;;;0.10;0.10;;;7.70;99.90;;;;;;4872047;29;20239;-85
2021/12/20 00:10:39;;;;;;;0.17;0.17;;;7.80;99.90;;;;;;4872795;29;20239;-85
2021/12/20 00:13:05;;;;;;;0.33;0.33;;;7.70;99.90;;;;;;4872910;29;20200;-84
2021/12/20 00:15:30;;;;;;;0.20;0.20;;;7.80;99.90;;;;;;4872343;29;20194;-84
2021/12/20 00:17:56;;;;;;;0.20;0.20;;;7.80;99.90;;;;;;4871367;29;20330;-85
2021/12/20 00:20:22;;;;;;;0.10;0.10;;;7.90;99.90;;;;;;4872168;29;20590;-85
2021/12/20 00:22:48;;;;;;;0.10;0.10;;;7.90;99.90;;;;;;4873629;29;20204;-85
2021/12/20 00:25:13;;;;;;;0.10;0.10;;;7.90;99.90;;;;;;4871068;29;20193;-85
2021/12/20 00:27:39;;;;;;;0.60;0.30;;;7.90;99.90;;;;;;4871662;29;20194;-85
2021/12/20 00:30:06;;;;;;;0.30;0.30;;;7.90;99.90;;;;;;4871922;29;20572;-85
2021/12/20 00:32:32;;;;;;;0.20;0.20;;;8.00;99.90;;;;;;4872051;29;20262;-86
2021/12/20 00:34:58;;;;;;;0.37;0.23;;;8.00;99.90;;;;;;4871553;29;20688;-85
2021/12/20 00:40:23;;;;;;;0.63;0.37;;;8.00;99.90;;;;;;4873486;29;20350;-85
2021/12/20 00:42:52;;;;;;;0.10;0.10;;;8.00;99.90;;;;;;4872267;29;20189;-85
2021/12/20 00:45:19;;;;;;;0.20;0.20;;;8.00;99.90;;;;;;4873066;29;20188;-84
2021/12/20 00:47:45;;;;;;;0.10;0.10;;;7.90;99.90;;;;;;4871034;29;20369;-86
2021/12/20 00:50:13;;;;;;;0.10;0.10;;;8.00;99.90;;;;;;4873203;29;20317;-85
2021/12/20 00:52:39;;;;;;;0.33;0.33;;;7.80;99.90;;;;;;4869998;29;20233;-86
2021/12/20 00:55:05;;;;;;;0.57;0.40;;;7.90;99.90;;;;;;4871220;29;20204;-85
2021/12/20 00:57:31;;;;;;;0.10;0.10;;;7.90;99.90;;;;;;4869525;29;20270;-85
2021/12/20 01:00:06;;;;;;;0.30;0.20;;;7.90;99.90;;;;;;5082767;27;20587;-84
2021/12/20 01:02:31;;;;;;;0.30;0.20;;;7.90;99.90;;;;;;5082606;28;20177;-84
2021/12/20 01:04:57;;;;;;;0.30;0.10;;;7.90;99.90;;;;;;5080406;28;20717;-84
2021/12/20 01:07:22;;;;;;;0.07;0.07;;;7.80;99.90;;;;;;5074550;28;20191;-84
2021/12/20 01:09:48;;;;;;;0.20;0.20;;;7.80;99.90;;;;;;5082953;28;20206;-84
2021/12/20 01:12:18;;;;;;;0.73;0.30;;;7.80;99.90;;;;;;5078332;28;20679;-84
2021/12/20 01:14:45;;;;;;;0.30;0.30;;;7.80;99.90;;;;;;5081705;28;20800;-85
2021/12/20 01:17:10;;;;;;;0.93;0.40;;;7.80;99.90;;;;;;5081839;28;20193;-84
2021/12/20 01:19:37;;;;;;;0.20;0.20;;;7.80;99.90;;;;;;5082005;28;20216;-84
2021/12/20 01:22:04;;;;;;;0.20;0.20;;;7.80;99.90;;;;;;5078385;28;20207;-83
2021/12/20 01:24:30;;;;;;;0.73;0.20;;;7.70;99.90;;;;;;5081982;28;20182;-84
2021/12/20 01:26:56;;;;;;;0.23;0.23;;;7.60;99.90;;;;;;5081513;28;20184;-84
2021/12/20 01:29:22;;;;;;;1.27;0.47;;;7.50;99.90;;;;;;5082416;28;20665;-84
2021/12/20 01:31:47;;;;;;;0.60;0.23;;;7.60;99.90;;;;;;5082331;28;20187;-84
2021/12/20 01:34:13;;;;;;;0.73;0.37;;;7.70;99.90;;;;;;5080038;28;20185;-85
2021/12/20 01:36:38;;;;;;;0.10;0.10;;;7.80;99.90;;;;;;5077362;28;20670;-84
2021/12/20 01:39:04;;;;;;;0.43;0.23;;;7.50;99.90;;;;;;5081044;28;20209;-84
2021/12/20 01:41:30;;;;;;;1.07;0.97;;;7.60;99.90;;;;;;5081392;28;20180;-84
2021/12/20 01:43:56;;;;;;;0.43;0.33;;;7.70;99.90;;;;;;5081648;28;20277;-84
2021/12/20 01:46:23;;;;;;;0.20;0.20;;;7.80;99.90;;;;;;5081859;28;20661;-84
2021/12/20 01:48:49;;;;;;;0.10;0.10;;;7.70;99.90;;;;;;5077287;28;20187;-84
2021/12/20 01:51:33;;;;;;;0.63;0.30;;;7.60;99.90;;;;;;5077254;28;20303;-84
2021/12/20 01:53:59;;;;;;;0.37;0.37;;;7.60;99.90;;;;;;5078179;28;20186;-84
2021/12/20 01:56:26;;;;;;;0.20;0.20;;;7.70;99.90;;;;;;5080280;28;20186;-84
2021/12/20 01:58:51;;;;;;;0.30;0.30;;;7.60;99.90;;;;;;5080825;28;20703;-85
2021/12/20 02:03:48;;;;;;;0.27;0.27;;;7.70;99.90;;;;;;5082992;28;20183;-85
2021/12/20 02:06:38;;;;;;;0.27;0.27;;;7.70;99.90;;;;;;5080564;28;20286;-85
2021/12/20 02:09:04;;;;;;;0.27;0.27;;;7.60;99.90;;;;;;5079300;28;20734;-85
2021/12/20 02:11:30;;;;;;;1.00;0.97;;;7.40;99.90;;;;;;5071866;28;20633;-85
2021/12/20 02:13:56;;;;;;;0.53;0.50;;;7.30;99.90;;;;;;5089079;28;20185;-84
2021/12/20 02:16:21;;;;;;;0.33;0.30;;;7.20;99.90;;;;;;5084923;28;20238;-84
2021/12/20 02:18:48;;;;;;;0.30;0.30;;;7.20;99.90;;;;;;5081884;28;20235;-85
2021/12/20 02:21:14;;;;;;;1.80;0.30;;;7.10;99.90;;;;;;5081031;28;20205;-85
2021/12/20 02:23:40;;;;;;;0.20;0.20;;;7.10;99.90;;;;;;5081905;28;20173;-84
2021/12/20 02:26:07;;;;;;;0.37;0.37;;;7.10;99.90;;;;;;5077026;28;20186;-83
2021/12/20 02:28:38;;;;;;;0.33;0.23;;;7.00;99.90;;;;;;5082844;28;20186;-83
2021/12/20 02:39:15;;;;;;;0.10;0.10;;;7.10;99.90;;;;;;5080782;28;20256;-84
2021/12/20 02:41:42;;;;;;;0.30;0.30;;;7.20;99.90;;;;;;5063247;28;20647;-84
2021/12/20 02:44:16;;;;;;;0.20;0.20;;;7.20;99.90;;;;;;5065526;28;20182;-84
2021/12/20 02:49:19;;;;;;;0.10;0.10;;;7.40;99.90;;;;;;5070717;28;20668;-84
2021/12/20 02:51:47;;;;;;;0.30;0.30;;;7.50;99.90;;;;;;5064565;28;20222;-84
2021/12/20 02:54:13;;;;;;;0.20;0.20;;;7.40;99.90;;;;;;5067650;28;20188;-85
2021/12/20 02:56:41;;;;;;;1.40;0.27;;;7.40;99.90;;;;;;5063304;28;20191;-85
2021/12/20 02:59:07;;;;;;;0.10;0.10;;;7.30;99.90;;;;;;5067102;28;20218;-84
2021/12/20 03:01:34;;;;;;;0.20;0.20;;;7.30;99.90;;;;;;5059256;28;20219;-85
2021/12/20 03:04:01;;;;;;;0.20;0.20;;;7.20;99.90;;;;;;5062912;28;20191;-85
2021/12/20 03:06:39;;;;;;;0.20;0.20;;;7.20;99.90;;;;;;5065934;28;20188;-84
2021/12/20 03:09:08;;;;;;;0.20;0.20;;;7.20;99.90;;;;;;5066203;28;20656;-84
2021/12/20 03:11:36;;;;;;;0.20;0.20;;;7.20;99.90;;;;;;5063119;28;20231;-85
2021/12/20 03:14:24;;;;;;;0.30;0.30;;;7.20;99.90;;;;;;5066322;28;20215;-84
2021/12/20 03:16:49;;;;;;;0.20;0.20;;;7.10;99.90;;;;;;5059070;28;20191;-84
2021/12/20 03:19:15;;;;;;;0.10;0.10;;;7.00;99.90;;;;;;5063868;28;20213;-85
2021/12/20 03:21:41;;;;;;;0.10;0.10;;;7.20;99.90;;;;;;5065137;28;20268;-84
2021/12/20 03:24:07;;;;;;;0.13;0.13;;;7.30;99.90;;;;;;5061205;28;20277;-84
2021/12/20 03:26:33;;;;;;;0.10;0.10;;;7.40;99.90;;;;;;5065718;28;20267;-84
2021/12/20 03:28:59;;;;;;;0.40;0.20;;;7.40;99.90;;;;;;5063794;28;20240;-84
2021/12/20 03:31:25;;;;;;;1.23;0.33;;;7.50;99.90;;;;;;5064134;28;20225;-84
2021/12/20 03:33:50;;;;;;;0.10;0.10;;;7.40;99.90;;;;;;5061873;28;20212;-85
2021/12/20 03:36:16;;;;;;;0.10;0.10;;;7.40;99.90;;;;;;5065239;28;20214;-85
2021/12/20 03:38:42;;;;;;;0.10;0.10;;;7.50;99.90;;;;;;5060661;28;20224;-84
2021/12/20 03:41:08;;;;;;;0.10;0.10;;;7.60;99.90;;;;;;5062353;28;20236;-84
2021/12/20 03:43:34;;;;;;;0.13;0.13;;;7.40;99.90;;;;;;5064133;28;20190;-85
2021/12/20 03:46:02;;;;;;;0.10;0.10;;;7.40;99.90;;;;;;5067099;28;20229;-84
2021/12/20 03:48:28;;;;;;;1.20;0.97;;;7.50;99.90;;;;;;5061476;28;20240;-85
2021/12/20 03:50:55;;;;;;;0.10;0.10;;;7.20;99.90;;;;;;5063903;28;20599;-84
2021/12/20 03:53:20;;;;;;;0.10;0.10;;;7.20;99.90;;;;;;5065544;28;20186;-84
2021/12/20 03:55:46;;;;;;;0.57;0.57;;;7.30;99.90;;;;;;5065858;28;20252;-85
2021/12/20 03:58:12;;;;;;;0.10;0.10;;;7.30;99.90;;;;;;5063635;28;20220;-85
2021/12/20 04:00:38;;;;;;;0.10;0.10;;;7.10;99.90;;;;;;5064127;28;20286;-84
2021/12/20 04:03:10;;;;;;;0.03;0.03;;;7.20;99.90;;;;;;5061570;28;20177;-85
2021/12/20 04:05:36;;;;;;;0.10;0.10;;;7.20;99.90;;;;;;5067035;28;20264;-85
2021/12/20 04:08:02;;;;;;;0.10;0.10;;;7.20;99.90;;;;;;5059237;28;20182;-85
2021/12/20 04:10:27;;;;;;;0.40;0.40;;;7.10;99.90;;;;;;5062732;28;20212;-84
2021/12/20 04:12:53;;;;;;;0.13;0.13;;;7.10;99.90;;;;;;5063103;28;20228;-85
2021/12/20 04:15:19;;;;;;;0.10;0.10;;;6.90;99.90;;;;;;5066497;28;20192;-84
2021/12/20 04:17:44;;;;;;;0.23;0.23;;;6.90;99.90;;;;;;5060422;28;20191;-85
2021/12/20 04:20:10;;;;;;;0.13;0.13;;;6.80;99.90;;;;;;5065222;28;20212;-84
2021/12/20 04:22:36;;;;;;;0.30;0.30;;;6.70;99.90;;;;;;5057198;28;20179;-84
2021/12/20 04:25:02;;;;;;;0.33;0.27;;;6.60;99.90;;;;;;5064728;28;20181;-84
2021/12/20 04:27:27;;;;;;;0.30;0.30;;;6.60;99.90;;;;;;5064662;28;20620;-84
2021/12/20 04:29:54;;;;;;;0.10;0.10;;;6.70;99.90;;;;;;5063009;28;20209;-84
2021/12/20 04:32:20;;;;;;;1.30;0.80;;;6.70;99.90;;;;;;5061703;28;20185;-83
2021/12/20 04:34:45;;;;;;;0.00;0.00;;;6.70;99.90;;;;;;5066053;28;20204;-85
2021/12/20 04:37:11;;;;;;;1.10;0.50;;;6.60;99.90;;;;;;5061449;28;20204;-84
2021/12/20 04:39:37;;;;;;;0.30;0.30;;;6.50;99.90;;;;;;5065471;28;20298;-84
2021/12/20 04:42:03;;;;;;;0.17;0.17;;;6.50;99.90;;;;;;5062915;28;20206;-85
2021/12/20 04:44:28;;;;;;;0.23;0.23;;;6.50;99.90;;;;;;5064517;28;20216;-84
2021/12/20 04:46:54;;;;;;;0.10;0.10;;;6.60;99.90;;;;;;5063057;28;20220;-84
2021/12/20 04:49:20;;;;;;;0.20;0.20;;;6.60;99.90;;;;;;5064692;28;20189;-85
2021/12/20 04:51:45;;;;;;;0.20;0.20;;;6.60;99.90;;;;;;5064821;28;20238;-85
2021/12/20 04:54:11;;;;;;;0.10;0.10;;;6.70;99.90;;;;;;5064628;28;20181;-85
2021/12/20 04:56:37;;;;;;;0.20;0.20;;;6.60;99.90;;;;;;5060087;28;20565;-84
2021/12/20 04:59:03;;;;;;;0.10;0.10;;;6.70;99.90;;;;;;5063916;28;20266;-85
2021/12/20 05:01:28;;;;;;;0.10;0.10;;;6.70;99.90;;;;;;5062813;28;20673;-84
2021/12/20 05:03:54;;;;;;;0.33;0.30;;;6.70;99.90;;;;;;5064879;28;20177;-83
2021/12/20 05:06:21;;;;;;;0.20;0.20;;;6.60;99.90;;;;;;5061963;28;20181;-85
2021/12/20 05:08:51;;;;;;;0.10;0.10;;;6.60;99.90;;;;;;5062306;28;20178;-84
2021/12/20 05:11:17;;;;;;;0.30;0.30;;;6.40;99.90;;;;;;5064414;28;20251;-84
2021/12/20 05:13:43;;;;;;;0.10;0.10;;;6.40;99.90;;;;;;5065325;28;20234;-85
2021/12/20 05:16:09;;;;;;;0.23;0.23;;;6.40;99.90;;;;;;5065019;28;20265;-84
2021/12/20 05:18:34;;;;;;;0.10;0.10;;;6.30;99.90;;;;;;5064252;28;20242;-84
2021/12/20 05:21:00;;;;;;;0.70;0.70;;;6.30;99.90;;;;;;5059786;28;20201;-84
2021/12/20 05:23:25;;;;;;;0.20;0.20;;;6.30;99.90;;;;;;5066502;28;20243;-84
2021/12/20 05:25:51;;;;;;;0.20;0.20;;;6.30;99.90;;;;;;5061013;28;20204;-84
2021/12/20 05:28:16;;;;;;;0.20;0.20;;;6.30;99.90;;;;;;5064923;28;20189;-84
2021/12/20 05:30:45;;;;;;;0.10;0.10;;;6.30;99.90;;;;;;5063986;28;20709;-83
2021/12/20 05:33:10;;;;;;;0.20;0.20;;;6.30;99.90;;;;;;5062635;28;20192;-83
2021/12/20 05:35:36;;;;;;;0.10;0.10;;;6.30;99.90;;;;;;5065133;28;20546;-83
2021/12/20 05:38:01;;;;;;;0.07;0.07;;;6.30;99.90;;;;;;5064843;28;20196;-83
2021/12/20 05:40:27;;;;;;;0.20;0.20;;;6.30;99.90;;;;;;5063225;28;20325;-83
2021/12/20 05:42:52;;;;;;;0.50;0.20;;;6.20;99.90;;;;;;5062932;28;20355;-83
2021/12/20 05:45:19;;;;;;;2.00;0.20;;;6.20;99.90;;;;;;5065149;28;20192;-84
2021/12/20 05:47:45;;;;;;;0.20;0.20;;;6.20;99.90;;;;;;5069716;28;20184;-84
2021/12/20 05:50:14;;;;;;;0.10;0.10;;;6.10;99.90;;;;;;5067219;28;20212;-83
2021/12/20 05:52:42;;;;;;;0.30;0.30;;;6.00;99.90;;;;;;5067872;28;20223;-84
2021/12/20 05:55:09;;;;;;;0.43;0.20;;;5.80;99.90;;;;;;5068299;28;20698;-84
2021/12/20 05:57:35;;;;;;;0.20;0.20;;;5.70;99.90;;;;;;5068201;28;20232;-84
2021/12/20 06:00:03;;;;;;;0.20;0.20;;;5.60;99.90;;;;;;5068504;28;20275;-84
2021/12/20 06:02:28;;;;;;;0.10;0.10;;;5.50;99.90;;;;;;5067424;28;20196;-84
2021/12/20 06:04:54;;;;;;;0.20;0.20;;;5.50;99.90;;;;;;5067644;28;20180;-82
2021/12/20 06:07:21;;;;;;;0.07;0.07;;;5.60;99.90;;;;;;5062925;28;20655;-82
2021/12/20 06:09:47;;;;;;;0.20;0.20;;;5.50;99.90;;;;;;5068057;28;20995;-82
2021/12/20 06:12:13;;;;;;;1.07;0.30;;;5.50;99.90;;;;;;5064855;28;20209;-82
2021/12/20 06:14:39;;;;;;;0.10;0.10;;;5.60;99.90;;;;;;5069539;28;20630;-84
2021/12/20 06:17:05;;;;;;;1.07;0.90;;;5.60;99.90;;;;;;5063820;28;20196;-83
2021/12/20 06:19:31;;;;;;;0.10;0.10;;;5.70;99.90;;;;;;5064578;28;20299;-83
2021/12/20 06:21:56;;;;;;;0.10;0.10;;;5.70;99.90;;;;;;5059969;28;20353;-84
2021/12/20 06:24:23;;;;;;;1.33;0.20;;;5.80;99.90;;;;;;5066858;28;20184;-83
2021/12/20 06:26:50;;;;;;;0.30;0.27;;;5.80;99.90;;;;;;5063692;28;20273;-84
2021/12/20 06:29:17;;;;;;;0.20;0.20;;;5.90;99.90;;;;;;5065789;28;20196;-84
2021/12/20 06:31:43;;;;;;;0.20;0.20;;;5.80;99.90;;;;;;5064992;28;20272;-83
2021/12/20 06:34:09;;;;;;;0.13;0.13;;;5.80;99.90;;;;;;5065342;28;20281;-84
2021/12/20 06:36:34;;;;;;;0.10;0.10;;;5.80;99.90;;;;;;5061373;28;20239;-84
2021/12/20 06:39:00;;;;;;;1.20;0.27;;;5.70;99.90;;;;;;5062927;28;20197;-84
2021/12/20 06:41:26;;;;;;;0.20;0.20;;;5.70;99.90;;;;;;5063107;28;20197;-84
2021/12/20 06:43:51;;;;;;;0.63;0.57;;;5.70;99.90;;;;;;5066190;28;20177;-84
2021/12/20 06:46:20;;;;;;;0.03;0.03;;;5.70;99.90;;;;;;5065712;28;20189;-84
2021/12/20 06:48:46;;;;;;;0.10;0.10;;;5.70;99.90;;;;;;5064606;28;20185;-84
2021/12/20 06:51:11;;;;;;;0.20;0.20;;;5.70;99.90;;;;;;5063042;28;20201;-84
2021/12/20 06:53:37;;;;;;;1.00;0.83;;;5.70;99.90;;;;;;5061014;28;20191;-85
2021/12/20 06:56:03;;;;;;;0.13;0.13;;;5.80;99.90;;;;;;5062923;28;20194;-85
2021/12/20 06:58:28;;;;;;;0.10;0.10;;;5.80;99.90;;;;;;5064985;28;20217;-83
2021/12/20 07:00:54;;;;;;;0.17;0.17;;;5.80;99.90;;;;;;5063889;28;20893;-84
2021/12/20 07:03:22;;;;;;;0.77;0.30;;;5.60;99.90;;;;;;5059610;28;20255;-84
2021/12/20 07:05:48;;;;;;;0.10;0.10;;;5.60;99.90;;;;;;5058537;28;20188;-84
2021/12/20 07:08:14;;;;;;;0.87;0.30;;;5.50;99.90;;;;;;5063382;28;20623;-82
2021/12/20 07:10:40;;;;;;;0.27;0.27;;;5.50;99.90;;;;;;5065154;28;20209;-83
2021/12/20 07:13:07;;;;;;;0.10;0.10;;;5.50;99.90;;;;;;5059594;28;20189;-82
2021/12/20 07:15:32;;;;;;;0.43;0.43;;;5.40;99.90;;;;;;5067953;28;20239;-83
2021/12/20 07:17:58;;;;;;;0.20;0.20;;;5.40;99.90;;;;;;5061083;28;20577;-82
2021/12/20 07:20:25;;;;;;;0.40;0.40;;;5.40;99.90;;;;;;5057090;28;20209;-82
2021/12/20 07:22:50;;;;;;;0.30;0.30;;;5.40;99.90;;;;;;5060654;28;20192;-82
2021/12/20 07:25:16;;;;;;;0.20;0.20;;;5.30;99.90;;;;;;5068595;28;20191;-81
2021/12/20 07:27:41;;;;;;;1.03;1.03;;;5.30;99.90;;;;;;5060068;28;20558;-82
2021/12/20 07:30:08;;;;;;;0.20;0.20;;;5.20;99.90;;;;;;5062680;28;20216;-82
2021/12/20 07:32:34;;;;;;;0.27;0.27;;;5.20;99.90;;;;;;5059450;28;20196;-83
2021/12/20 07:34:59;;;;;;;1.00;0.50;;;5.30;99.90;;;;;;5065819;28;20192;-82
2021/12/20 07:37:27;;;;;;;0.27;0.27;;;5.20;99.90;;;;;;5067534;28;20314;-82
2021/12/20 07:39:52;;;;;;;0.20;0.20;;;5.20;99.90;;;;;;5063623;28;20318;-82
2021/12/20 07:42:18;;;;;;;0.10;0.10;;;5.00;99.90;;;;;;5066037;28;20270;-82
2021/12/20 07:44:44;;;;;;;0.10;0.10;;;4.90;99.90;;;;;;5065486;28;20276;-82
2021/12/20 07:47:10;;;;;;;0.73;0.20;;;4.90;99.90;;;;;;5070618;28;20215;-82
2021/12/20 07:49:36;;;;;;;0.27;0.27;;;4.80;99.90;;;;;;5084057;28;20239;-82
2021/12/20 07:52:02;;;;;;;0.93;0.70;;;4.90;99.90;;;;;;5067116;28;20199;-83
2021/12/20 07:54:28;;;;;;;0.10;0.10;;;4.80;99.90;;;;;;5063465;28;20790;-82
2021/12/20 07:56:53;;;;;;;0.27;0.27;;;4.80;99.90;;;;;;5063832;28;20203;-81
2021/12/20 07:59:19;;;;;;;0.40;0.40;;;4.60;99.90;;;;;;5067349;28;20297;-81
2021/12/20 08:01:45;;;;;;;0.10;0.10;;;4.60;99.90;;;;;;5065378;28;20238;-82
2021/12/20 08:04:11;;;;;;;0.10;0.10;;;4.70;99.90;;;;;;5068443;28;20189;-82
2021/12/20 08:06:36;;;;;;;0.10;0.10;;;4.70;99.90;;;;;;5063180;28;20194;-82
2021/12/20 08:09:03;;;;;;;0.00;0.00;;;4.70;99.90;;;;;;5068733;28;20733;-82
2021/12/20 08:11:29;;;;;;;0.23;0.23;;;4.60;99.90;;;;;;5065207;28;20212;-82
2021/12/20 08:13:55;;;;;;;0.10;0.10;;;4.60;99.90;;;;;;5060005;28;20200;-83
2021/12/20 08:16:20;;;;;;;0.30;0.30;;;4.70;99.90;;;;;;5064428;28;20240;-84
2021/12/20 08:18:47;;;;;;;0.10;0.10;;;4.70;99.90;;;;;;5058273;28;20225;-83
2021/12/20 08:21:14;;;;;;;0.13;0.10;;;4.90;99.90;;;;;;5064187;28;20207;-82
2021/12/20 08:23:40;;;;;;;0.10;0.10;;;4.80;99.90;;;;;;5062584;28;20184;-82
2021/12/20 08:26:07;;;;;;;0.20;0.20;;;4.80;99.90;;;;;;5060306;28;20185;-82
2021/12/20 08:28:35;;;;;;;0.63;0.63;;;4.90;99.90;;;;;;5065419;28;20404;-82
2021/12/20 08:31:02;;;;;;;0.33;0.20;;;4.80;99.90;;;;;;5055764;28;20236;-82
2021/12/20 08:33:27;;;;;;;0.10;0.10;;;4.80;99.90;;;;;;5061515;28;20181;-82
2021/12/20 08:35:53;;;;;;;0.10;0.10;;;4.90;99.90;;;;;;5057495;28;20201;-82
2021/12/20 08:38:19;;;;;;;0.30;0.30;;;5.00;99.90;;;;;;5064663;28;20291;-82
2021/12/20 08:40:47;;;;;;;0.20;0.20;;;5.00;99.90;;;;;;5066175;28;20262;-81
2021/12/20 08:43:14;;;;;;;0.27;0.17;;;5.00;99.90;;;;;;5065023;28;21026;-82
2021/12/20 08:45:41;;;;;;;0.10;0.10;;;5.00;99.90;;;;;;5064495;28;20181;-81
2021/12/20 08:48:06;;;;;;;0.47;0.30;;;5.00;99.90;;;;;;5058652;28;20195;-82
2021/12/20 08:50:32;;;;;;;0.10;0.10;;;5.20;99.90;;;;;;5066753;28;20198;-84
2021/12/20 08:52:58;;;;;;;0.17;0.13;;;5.30;99.90;;;;;;5059615;28;20295;-82
2021/12/20 08:55:24;;;;;;;1.50;0.83;;;5.40;99.90;;;;;;5065000;28;20259;-82
2021/12/20 08:57:50;;;;;;;0.13;0.13;;;5.30;99.90;;;;;;5059101;28;20272;-84
2021/12/20 09:00:23;;;;;;;2.57;1.40;;;5.50;99.90;;;;;;5057841;28;20713;-81
2021/12/20 09:02:49;;;;;;;5.93;0.20;;;5.40;99.90;;;;;;5064735;28;20256;-84
2021/12/20 09:05:15;;;;;;;0.50;0.37;;;5.50;99.90;;;;;;5063109;28;20213;-81
2021/12/20 09:07:41;;;;;;;0.00;0.00;;;5.60;99.90;;;;;;5061782;28;20192;-81
2021/12/20 09:10:09;;;;;;;0.10;0.10;;;5.70;99.90;;;;;;5060433;28;20208;-81
2021/12/20 09:12:35;;;;;;;0.10;0.10;;;5.70;99.90;;;;;;5062447;28;20193;-82
2021/12/20 09:15:00;;;;;;;0.10;0.10;;;5.80;99.90;;;;;;5057217;28;20646;-81
2021/12/20 09:17:26;;;;;;;0.10;0.10;;;5.70;99.90;;;;;;5061611;28;20204;-82
2021/12/20 09:19:53;;;;;;;0.30;0.30;;;5.70;99.90;;;;;;5061329;28;20244;-81
2021/12/20 09:22:19;;;;;;;0.07;0.07;;;5.80;99.90;;;;;;5071043;28;20176;-81
2021/12/20 09:24:45;;;;;;;0.10;0.10;;;5.90;99.90;;;;;;5070427;28;20258;-81
2021/12/20 09:27:12;;;;;;;0.07;0.07;;;6.00;99.90;;;;;;5064772;28;20237;-82
2021/12/20 09:29:39;;;;;;;0.30;0.30;;;6.00;99.90;;;;;;5061103;28;20209;-82
2021/12/20 09:32:05;;;;;;;0.30;0.30;;;6.20;99.90;;;;;;5086380;28;20188;-82
2021/12/20 09:34:31;;;;;;;0.00;0.00;;;6.00;99.90;;;;;;5063212;28;20306;-81
2021/12/20 09:36:57;;;;;;;0.10;0.10;;;6.10;99.90;;;;;;5059266;28;20818;-82
2021/12/20 09:39:23;;;;;;;0.50;0.50;;;6.20;99.90;;;;;;5062844;28;20211;-82
2021/12/20 09:44:15;;;;;;;0.10;0.10;;;6.40;99.90;;;;;;5068243;28;20771;-81
2021/12/20 09:46:41;;;;;;;0.17;0.17;;;6.40;99.90;;;;;;5082697;28;20184;-82
2021/12/20 09:49:08;;;;;;;0.30;0.30;;;6.30;99.90;;;;;;5061620;28;20203;-82
2021/12/20 09:51:35;;;;;;;0.10;0.10;;;6.30;99.90;;;;;;5064663;28;20196;-82
2021/12/20 09:54:01;;;;;;;0.10;0.10;;;6.50;99.90;;;;;;5065931;28;20271;-82
2021/12/20 09:56:28;;;;;;;0.10;0.10;;;6.30;99.90;;;;;;5062220;28;20299;-82
2021/12/20 09:58:59;;;;;;;0.20;0.20;;;6.40;99.90;;;;;;5062531;28;20213;-82
2021/12/20 10:01:26;;;;;;;0.30;0.30;;;6.40;99.90;;;;;;5066505;28;20201;-82
2021/12/20 10:03:53;;;;;;;0.10;0.10;;;6.40;99.90;;;;;;5063900;28;20613;-82
2021/12/20 10:06:19;;;;;;;0.10;0.10;;;6.50;99.90;;;;;;5064253;28;20181;-82
2021/12/20 10:08:52;;;;;;;0.40;0.30;;;6.50;99.90;;;;;;5057716;28;20185;-83
2021/12/20 10:11:24;;;;;;;0.10;0.10;;;6.60;99.90;;;;;;5064173;28;20333;-82
2021/12/20 10:14:01;;;;;;;0.10;0.10;;;6.80;99.90;;;;;;5061211;28;20201;-82
2021/12/20 10:16:28;;;;;;;0.10;0.10;;;6.50;99.90;;;;;;5063362;28;20752;-83
2021/12/20 10:18:54;;;;;;;3.80;0.30;;;6.40;99.90;;;;;;5063458;28;20239;-86
2021/12/20 10:21:20;;;;;;;0.10;0.10;;;6.50;99.90;;;;;;5060637;28;20224;-86
2021/12/20 10:23:49;;;;;;;0.47;0.47;;;6.70;99.90;;;;;;5067359;28;20228;-83
2021/12/20 10:26:20;;;;;;;0.30;0.30;;;6.50;99.90;;;;;;5057633;28;20178;-83
2021/12/20 10:28:53;;;;;;;0.47;0.27;;;6.60;99.90;;;;;;5065478;28;20201;-84
2021/12/20 10:31:25;;;;;;;0.40;0.40;;;6.90;99.90;;;;;;5067073;28;20257;-83
2021/12/20 10:33:56;;;;;;;0.10;0.10;;;6.80;99.90;;;;;;5060802;28;20622;-83
2021/12/20 10:36:23;;;;;;;0.10;0.10;;;6.80;99.90;;;;;;5072408;28;20740;-84
2021/12/20 10:38:56;;;;;;;0.10;0.10;;;7.00;99.90;;;;;;5066489;28;20208;-84
2021/12/20 10:41:35;;;;;;;0.10;0.10;;;6.90;99.90;;;;;;5066069;28;20283;-84
2021/12/20 10:44:14;;;;;;;0.10;0.10;;;6.80;99.90;;;;;;5064580;28;20208;-82
2021/12/20 10:46:46;;;;;;;0.10;0.10;;;6.70;99.90;;;;;;5063075;28;20260;-84
2021/12/20 10:49:14;;;;;;;0.10;0.10;;;6.70;99.90;;;;;;5063201;28;20723;-84
2021/12/20 10:51:42;;;;;;;0.10;0.10;;;6.90;99.90;;;;;;5063689;28;20265;-84
2021/12/20 10:54:11;;;;;;;0.00;0.00;;;7.10;99.90;;;;;;5067089;28;20185;-84
2021/12/20 10:57:05;;;;;;;0.10;0.10;;;7.10;99.90;;;;;;5067172;28;20185;-84
2021/12/20 10:59:35;;;;;;;0.10;0.10;;;7.00;99.90;;;;;;5066417;28;20218;-83
2021/12/20 11:04:33;;;;;;;0.10;0.10;;;7.10;99.90;;;;;;5068573;28;20185;-84
2021/12/20 11:09:46;;;;;;;0.40;0.40;;;7.00;99.90;;;;;;5065633;28;20232;-84
2021/12/20 11:12:20;;;;;;;0.10;0.10;;;6.90;99.90;;;;;;5065808;28;20241;-84
2021/12/20 11:14:49;;;;;;;0.00;0.00;;;7.00;99.90;;;;;;5065354;28;20187;-83
2021/12/20 11:17:17;;;;;;;0.10;0.10;;;7.00;99.90;;;;;;5065613;28;20265;-83
2021/12/20 11:19:45;;;;;;;0.10;0.10;;;7.00;99.90;;;;;;5067845;28;20555;-84
2021/12/20 11:22:11;;;;;;;0.20;0.20;;;6.80;99.90;;;;;;5065960;28;20721;-84
2021/12/20 11:24:39;;;;;;;0.00;0.00;;;7.10;99.90;;;;;;5065839;28;20183;-84
2021/12/20 11:27:53;;;;;;;0.00;0.00;;;7.20;99.90;;;;;;5065779;28;20181;-84
2021/12/20 11:30:26;;;;;;;0.10;0.10;;;7.40;99.90;;;;;;5065156;28;20305;-84
2021/12/20 11:32:52;;;;;;;0.40;0.40;;;7.50;99.90;;;;;;5066876;28;20200;-84
2021/12/20 11:35:20;;;;;;;0.40;0.30;;;7.30;99.90;;;;;;5066927;28;20634;-84
2021/12/20 11:37:45;;;;;;;0.20;0.20;;;7.00;99.90;;;;;;5069817;28;21125;-84
2021/12/20 11:40:13;;;;;;;0.10;0.10;;;7.00;99.90;;;;;;5068797;28;20213;-83
2021/12/20 11:42:39;;;;;;;0.10;0.10;;;7.10;99.90;;;;;;5063317;28;20200;-83
2021/12/20 11:45:08;;;;;;;0.10;0.10;;;7.10;99.90;;;;;;5060151;28;20210;-84
2021/12/20 11:48:05;;;;;;;0.10;0.10;;;7.10;99.90;;;;;;5065884;28;20672;-84
2021/12/20 11:50:37;;;;;;;0.10;0.10;;;7.10;99.90;;;;;;5066225;28;20697;-84
2021/12/20 11:53:14;;;;;;;0.10;0.10;;;7.20;99.90;;;;;;5065463;28;20536;-84
2021/12/20 11:55:50;;;;;;;0.10;0.10;;;7.20;99.90;;;;;;5067151;28;20210;-84
2021/12/20 11:58:28;;;;;;;0.40;0.10;;;7.00;99.90;;;;;;5064794;28;20196;-83
2021/12/20 12:01:03;;;;;;;0.20;0.20;;;7.20;99.90;;;;;;5065063;28;20220;-83
2021/12/20 12:03:34;;;;;;;0.10;0.10;;;7.50;99.90;;;;;;5066207;28;20180;-84
2021/12/20 12:06:08;;;;;;;0.20;0.20;;;7.40;99.90;;;;;;5062063;28;20259;-83
2021/12/20 12:08:39;;;;;;;0.10;0.10;;;7.20;99.90;;;;;;5065979;28;20208;-84
2021/12/20 12:11:08;;;;;;;0.20;0.20;;;7.50;99.90;;;;;;5065443;28;20201;-85
2021/12/20 12:13:47;;;;;;;0.47;0.47;;;7.50;99.90;;;;;;5066161;28;20184;-85
2021/12/20 12:16:30;;;;;;;0.00;0.00;;;7.40;99.90;;;;;;5063442;28;20207;-83
2021/12/20 12:19:01;;;;;;;0.00;0.00;;;7.50;99.90;;;;;;5081849;28;20212;-85
2021/12/20 12:21:33;;;;;;;0.03;0.03;;;7.80;99.90;;;;;;5058926;28;20212;-85
2021/12/20 12:24:01;;;;;;;0.10;0.10;;;7.50;99.90;;;;;;5065149;28;20185;-82
2021/12/20 12:26:38;;;;;;;0.10;0.10;;;7.40;99.90;;;;;;5064656;28;20728;-82
2021/12/20 12:29:07;;;;;;;0.10;0.10;;;7.10;99.90;;;;;;5063397;28;20191;-82
2021/12/20 12:31:56;;;;;;;0.10;0.10;;;7.00;99.90;;;;;;5064894;28;20223;-82
2021/12/20 12:34:24;;;;;;;0.13;0.13;;;7.00;99.90;;;;;;5066785;28;20173;-81
2021/12/20 12:36:50;;;;;;;0.10;0.10;;;7.20;99.90;;;;;;5065891;28;20181;-82
2021/12/20 12:39:22;;;;;;;0.20;0.20;;;7.10;99.90;;;;;;5067627;28;20190;-82
2021/12/20 12:41:54;;;;;;;0.10;0.10;;;7.20;99.90;;;;;;5062943;28;20209;-82
2021/12/20 12:44:24;;;;;;;1.10;0.87;;;7.20;99.90;;;;;;5067708;28;20177;-82
2021/12/20 12:46:51;;;;;;;0.07;0.07;;;7.50;99.90;;;;;;5061667;28;20189;-81
2021/12/20 12:49:23;;;;;;;0.10;0.10;;;7.40;99.90;;;;;;5057515;28;20201;-81
2021/12/20 12:52:00;;;;;;;0.10;0.10;;;7.40;99.90;;;;;;5064554;28;20196;-82
2021/12/20 12:54:32;;;;;;;0.10;0.10;;;7.40;99.90;;;;;;5066224;28;20220;-82
2021/12/20 12:57:10;;;;;;;0.10;0.10;;;7.20;99.90;;;;;;5064012;28;20189;-83
2021/12/20 12:59:47;;;;;;;0.10;0.10;;;7.30;99.90;;;;;;5063258;28;20328;-83
2021/12/20 13:02:30;;;;;;;0.10;0.10;;;7.50;99.90;;;;;;5067345;28;20658;-83
2021/12/20 13:05:15;;;;;;;0.10;0.10;;;7.30;99.90;;;;;;5064613;28;20193;-82
2021/12/20 13:07:51;;;;;;;0.10;0.10;;;7.20;99.90;;;;;;5065700;28;20187;-82
2021/12/20 13:10:42;;;;;;;0.10;0.10;;;7.10;99.90;;;;;;5060337;28;20205;-82
2021/12/20 13:13:22;;;;;;;0.10;0.10;;;7.10;99.90;;;;;;5055002;28;20196;-82
2021/12/20 13:15:57;;;;;;;0.10;0.10;;;7.00;99.90;;;;;;5066408;28;21134;-83
2021/12/20 13:18:32;;;;;;;0.20;0.20;;;6.90;99.90;;;;;;5065134;28;20734;-83
2021/12/20 13:21:02;;;;;;;0.10;0.10;;;7.20;99.90;;;;;;5067988;28;20209;-82
2021/12/20 13:23:32;;;;;;;0.10;0.10;;;7.20;99.90;;;;;;5066331;28;20176;-83
2021/12/20 13:26:10;;;;;;;9.63;0.40;;;7.20;99.90;;;;;;5065992;28;20210;-83